Charmco, West Virginia
Current Conditions -  °F | °C
As of 12:35 PM on Thursday 23 Oct 2014 (Local Time) from KLWB Reporting Station
Overcast Overcast  
Wind Chill: 53°   Ceiling: 2400
Heat Index: 53°   Visibility: 10mi
Dew Point: 39°   Wind: 9mph
Humidity: 59%   Direction: 310°NW
Pressure: 30.12"   Gusts: NA
Location:  38°N, 80.74°W
Report Text: KLWB 231635Z AUTO 31008KT 10SM OVC024 12/04 A3012 RMK AO2 T01150038
Loading
Personal Weather Stations






























Interactive Weather Map
Tropical Storm Tracking
New forecast layout! Learn more

10-Day Weather Forecast

Advertisements
Track Severe Weather on mobile